sensor_id;sensor_type;location;lat;lon;timestamp;P1;durP1;ratioP1;P2;durP2;ratioP2
55224;SDS011;41091;49.400;8.684;2022-10-13T00:01:20;13.05;;;7.35;;
55224;SDS011;41091;49.400;8.684;2022-10-13T00:03:49;18.83;;;8.18;;
55224;SDS011;41091;49.400;8.684;2022-10-13T00:06:16;21.23;;;8.45;;
55224;SDS011;41091;49.400;8.684;2022-10-13T00:08:43;17.10;;;7.93;;
55224;SDS011;41091;49.400;8.684;2022-10-13T00:11:27;15.15;;;7.65;;
55224;SDS011;41091;49.400;8.684;2022-10-13T00:13:56;12.70;;;7.78;;
55224;SDS011;41091;49.400;8.684;2022-10-13T00:16:24;17.38;;;7.97;;
55224;SDS011;41091;49.400;8.684;2022-10-13T00:18:53;16.83;;;7.28;;
55224;SDS011;41091;49.400;8.684;2022-10-13T00:21:22;14.43;;;7.28;;
55224;SDS011;41091;49.400;8.684;2022-10-13T00:23:50;11.18;;;7.30;;
55224;SDS011;41091;49.400;8.684;2022-10-13T00:26:16;9.52;;;6.50;;
55224;SDS011;41091;49.400;8.684;2022-10-13T00:28:42;9.60;;;6.38;;
55224;SDS011;41091;49.400;8.684;2022-10-13T00:31:21;17.75;;;6.75;;
55224;SDS011;41091;49.400;8.684;2022-10-13T00:33:53;6.85;;;6.10;;
55224;SDS011;41091;49.400;8.684;2022-10-13T00:36:19;8.77;;;6.65;;
55224;SDS011;41091;49.400;8.684;2022-10-13T00:38:47;9.57;;;6.82;;
55224;SDS011;41091;49.400;8.684;2022-10-13T00:41:15;18.33;;;7.53;;
55224;SDS011;41091;49.400;8.684;2022-10-13T00:43:48;15.48;;;7.40;;
55224;SDS011;41091;49.400;8.684;2022-10-13T00:46:29;10.23;;;6.65;;
55224;SDS011;41091;49.400;8.684;2022-10-13T00:48:56;12.35;;;6.95;;
55224;SDS011;41091;49.400;8.684;2022-10-13T00:51:25;13.90;;;6.50;;
55224;SDS011;41091;49.400;8.684;2022-10-13T00:53:53;9.38;;;6.05;;
55224;SDS011;41091;49.400;8.684;2022-10-13T00:56:20;6.68;;;6.00;;
55224;SDS011;41091;49.400;8.684;2022-10-13T00:58:48;12.75;;;7.53;;
55224;SDS011;41091;49.400;8.684;2022-10-13T01:01:13;12.95;;;7.43;;
55224;SDS011;41091;49.400;8.684;2022-10-13T01:03:41;13.73;;;6.15;;
55224;SDS011;41091;49.400;8.684;2022-10-13T01:06:06;14.65;;;7.45;;
55224;SDS011;41091;49.400;8.684;2022-10-13T01:08:36;10.90;;;6.32;;
55224;SDS011;41091;49.400;8.684;2022-10-13T01:11:15;16.55;;;6.45;;
55224;SDS011;41091;49.400;8.684;2022-10-13T01:13:52;12.13;;;7.25;;
55224;SDS011;41091;49.400;8.684;2022-10-13T01:24:35;10.55;;;6.75;;
55224;SDS011;41091;49.400;8.684;2022-10-13T01:30:06;13.68;;;7.43;;
55224;SDS011;41091;49.400;8.684;2022-10-13T01:38:07;12.82;;;6.20;;
55224;SDS011;41091;49.400;8.684;2022-10-13T01:40:41;7.63;;;6.82;;
55224;SDS011;41091;49.400;8.684;2022-10-13T01:45:56;9.57;;;7.15;;
55224;SDS011;41091;49.400;8.684;2022-10-13T01:48:24;20.33;;;8.38;;
55224;SDS011;41091;49.400;8.684;2022-10-13T01:50:50;16.13;;;8.35;;
55224;SDS011;41091;49.400;8.684;2022-10-13T01:53:19;23.55;;;10.25;;
55224;SDS011;41091;49.400;8.684;2022-10-13T01:55:58;13.27;;;9.25;;
55224;SDS011;41091;49.400;8.684;2022-10-13T01:58:25;14.85;;;8.23;;
55224;SDS011;41091;49.400;8.684;2022-10-13T02:06:38;23.25;;;10.52;;
55224;SDS011;41091;49.400;8.684;2022-10-13T02:09:08;12.65;;;8.50;;
55224;SDS011;41091;49.400;8.684;2022-10-13T02:11:37;18.92;;;8.95;;
55224;SDS011;41091;49.400;8.684;2022-10-13T02:14:15;17.58;;;8.63;;
55224;SDS011;41091;49.400;8.684;2022-10-13T02:16:47;16.20;;;9.55;;
55224;SDS011;41091;49.400;8.684;2022-10-13T02:19:16;11.80;;;7.50;;
55224;SDS011;41091;49.400;8.684;2022-10-13T02:21:42;24.08;;;8.00;;
55224;SDS011;41091;49.400;8.684;2022-10-13T02:24:08;12.57;;;9.07;;
55224;SDS011;41091;49.400;8.684;2022-10-13T02:26:34;13.95;;;8.95;;
55224;SDS011;41091;49.400;8.684;2022-10-13T02:29:06;13.45;;;8.30;;
55224;SDS011;41091;49.400;8.684;2022-10-13T02:31:41;12.35;;;7.80;;
55224;SDS011;41091;49.400;8.684;2022-10-13T02:34:06;17.90;;;9.05;;
55224;SDS011;41091;49.400;8.684;2022-10-13T02:36:32;12.85;;;7.72;;
55224;SDS011;41091;49.400;8.684;2022-10-13T02:38:58;15.93;;;8.52;;
55224;SDS011;41091;49.400;8.684;2022-10-13T02:41:24;22.02;;;9.25;;
55224;SDS011;41091;49.400;8.684;2022-10-13T02:43:52;19.90;;;8.68;;
55224;SDS011;41091;49.400;8.684;2022-10-13T02:46:19;19.10;;;9.40;;
55224;SDS011;41091;49.400;8.684;2022-10-13T02:48:44;20.67;;;8.80;;
55224;SDS011;41091;49.400;8.684;2022-10-13T02:51:14;13.82;;;8.52;;
55224;SDS011;41091;49.400;8.684;2022-10-13T02:53:39;17.65;;;6.88;;
55224;SDS011;41091;49.400;8.684;2022-10-13T02:56:05;15.10;;;7.80;;
55224;SDS011;41091;49.400;8.684;2022-10-13T02:58:31;12.60;;;8.10;;
55224;SDS011;41091;49.400;8.684;2022-10-13T03:01:08;18.92;;;8.52;;
55224;SDS011;41091;49.400;8.684;2022-10-13T03:03:35;10.70;;;7.80;;
55224;SDS011;41091;49.400;8.684;2022-10-13T03:06:06;15.10;;;8.30;;
55224;SDS011;41091;49.400;8.684;2022-10-13T03:08:32;18.00;;;7.78;;
55224;SDS011;41091;49.400;8.684;2022-10-13T03:11:03;13.10;;;7.90;;
55224;SDS011;41091;49.400;8.684;2022-10-13T03:13:28;14.00;;;7.55;;
55224;SDS011;41091;49.400;8.684;2022-10-13T03:15:54;20.20;;;8.15;;
55224;SDS011;41091;49.400;8.684;2022-10-13T03:18:21;14.43;;;8.15;;
55224;SDS011;41091;49.400;8.684;2022-10-13T03:23:23;16.10;;;8.60;;
55224;SDS011;41091;49.400;8.684;2022-10-13T03:25:51;11.88;;;8.27;;
55224;SDS011;41091;49.400;8.684;2022-10-13T03:28:17;9.70;;;7.47;;
55224;SDS011;41091;49.400;8.684;2022-10-13T03:30:45;13.73;;;7.97;;
55224;SDS011;41091;49.400;8.684;2022-10-13T03:33:10;15.15;;;8.10;;
55224;SDS011;41091;49.400;8.684;2022-10-13T03:35:36;15.02;;;8.48;;
55224;SDS011;41091;49.400;8.684;2022-10-13T03:38:01;11.50;;;8.32;;
55224;SDS011;41091;49.400;8.684;2022-10-13T03:40:26;10.93;;;7.38;;
55224;SDS011;41091;49.400;8.684;2022-10-13T03:42:52;12.70;;;7.93;;
55224;SDS011;41091;49.400;8.684;2022-10-13T03:45:17;9.07;;;7.50;;
55224;SDS011;41091;49.400;8.684;2022-10-13T03:47:43;18.50;;;7.95;;
55224;SDS011;41091;49.400;8.684;2022-10-13T03:50:08;17.58;;;8.38;;
55224;SDS011;41091;49.400;8.684;2022-10-13T03:52:36;15.55;;;7.97;;
55224;SDS011;41091;49.400;8.684;2022-10-13T03:55:04;11.80;;;8.13;;
55224;SDS011;41091;49.400;8.684;2022-10-13T03:57:29;14.90;;;7.75;;
55224;SDS011;41091;49.400;8.684;2022-10-13T03:59:57;12.57;;;8.65;;
55224;SDS011;41091;49.400;8.684;2022-10-13T04:02:25;17.80;;;8.38;;
55224;SDS011;41091;49.400;8.684;2022-10-13T04:04:53;22.02;;;9.23;;
55224;SDS011;41091;49.400;8.684;2022-10-13T04:07:18;22.98;;;10.63;;
55224;SDS011;41091;49.400;8.684;2022-10-13T04:09:44;22.67;;;11.65;;
55224;SDS011;41091;49.400;8.684;2022-10-13T04:12:12;22.33;;;11.55;;
55224;SDS011;41091;49.400;8.684;2022-10-13T04:14:37;24.23;;;11.07;;
55224;SDS011;41091;49.400;8.684;2022-10-13T04:17:03;22.60;;;12.13;;
55224;SDS011;41091;49.400;8.684;2022-10-13T04:19:28;25.65;;;10.73;;
55224;SDS011;41091;49.400;8.684;2022-10-13T04:21:53;34.05;;;11.40;;
55224;SDS011;41091;49.400;8.684;2022-10-13T04:24:24;32.72;;;11.52;;
55224;SDS011;41091;49.400;8.684;2022-10-13T04:26:49;23.42;;;12.18;;
55224;SDS011;41091;49.400;8.684;2022-10-13T04:29:17;24.30;;;12.25;;
55224;SDS011;41091;49.400;8.684;2022-10-13T04:31:42;21.95;;;12.43;;
55224;SDS011;41091;49.400;8.684;2022-10-13T04:34:08;28.38;;;14.30;;
55224;SDS011;41091;49.400;8.684;2022-10-13T04:36:33;30.52;;;12.70;;
55224;SDS011;41091;49.400;8.684;2022-10-13T04:38:59;35.20;;;13.02;;
55224;SDS011;41091;49.400;8.684;2022-10-13T04:41:24;29.38;;;13.07;;
55224;SDS011;41091;49.400;8.684;2022-10-13T04:43:50;35.00;;;14.95;;
55224;SDS011;41091;49.400;8.684;2022-10-13T04:46:19;23.27;;;12.82;;
55224;SDS011;41091;49.400;8.684;2022-10-13T04:48:46;28.40;;;12.23;;
55224;SDS011;41091;49.400;8.684;2022-10-13T04:51:12;24.15;;;12.23;;
55224;SDS011;41091;49.400;8.684;2022-10-13T04:53:40;30.02;;;13.63;;
55224;SDS011;41091;49.400;8.684;2022-10-13T04:56:06;22.77;;;11.10;;
55224;SDS011;41091;49.400;8.684;2022-10-13T04:58:34;22.05;;;11.50;;
55224;SDS011;41091;49.400;8.684;2022-10-13T05:01:00;32.10;;;12.43;;
55224;SDS011;41091;49.400;8.684;2022-10-13T05:03:29;22.83;;;11.85;;
55224;SDS011;41091;49.400;8.684;2022-10-13T05:05:57;24.52;;;12.32;;
55224;SDS011;41091;49.400;8.684;2022-10-13T05:08:22;23.45;;;12.68;;
55224;SDS011;41091;49.400;8.684;2022-10-13T05:10:53;20.00;;;11.57;;
55224;SDS011;41091;49.400;8.684;2022-10-13T05:13:22;20.20;;;12.15;;
55224;SDS011;41091;49.400;8.684;2022-10-13T05:15:49;20.65;;;11.98;;
55224;SDS011;41091;49.400;8.684;2022-10-13T05:18:17;23.65;;;12.50;;
55224;SDS011;41091;49.400;8.684;2022-10-13T05:20:44;25.15;;;12.10;;
55224;SDS011;41091;49.400;8.684;2022-10-13T05:23:10;24.05;;;12.40;;
55224;SDS011;41091;49.400;8.684;2022-10-13T05:25:38;26.38;;;12.98;;
55224;SDS011;41091;49.400;8.684;2022-10-13T05:28:04;23.48;;;12.63;;
55224;SDS011;41091;49.400;8.684;2022-10-13T05:30:30;26.90;;;11.88;;
55224;SDS011;41091;49.400;8.684;2022-10-13T05:32:57;26.08;;;11.43;;
55224;SDS011;41091;49.400;8.684;2022-10-13T05:35:26;27.65;;;13.15;;
55224;SDS011;41091;49.400;8.684;2022-10-13T05:37:51;31.80;;;12.63;;
55224;SDS011;41091;49.400;8.684;2022-10-13T05:40:17;25.35;;;12.48;;
55224;SDS011;41091;49.400;8.684;2022-10-13T05:42:45;28.42;;;12.68;;
55224;SDS011;41091;49.400;8.684;2022-10-13T05:45:10;22.20;;;12.13;;
55224;SDS011;41091;49.400;8.684;2022-10-13T05:47:36;28.75;;;13.20;;
55224;SDS011;41091;49.400;8.684;2022-10-13T05:50:07;23.65;;;13.52;;
55224;SDS011;41091;49.400;8.684;2022-10-13T05:52:32;26.10;;;12.43;;
55224;SDS011;41091;49.400;8.684;2022-10-13T05:54:59;27.25;;;13.35;;
55224;SDS011;41091;49.400;8.684;2022-10-13T05:57:34;30.08;;;12.85;;
55224;SDS011;41091;49.400;8.684;2022-10-13T06:00:06;32.85;;;14.18;;
55224;SDS011;41091;49.400;8.684;2022-10-13T06:02:49;23.25;;;13.95;;
55224;SDS011;41091;49.400;8.684;2022-10-13T06:05:17;26.05;;;13.35;;
55224;SDS011;41091;49.400;8.684;2022-10-13T06:07:46;26.10;;;13.07;;
55224;SDS011;41091;49.400;8.684;2022-10-13T06:10:16;31.15;;;13.90;;
55224;SDS011;41091;49.400;8.684;2022-10-13T06:12:41;25.05;;;12.68;;
55224;SDS011;41091;49.400;8.684;2022-10-13T06:15:07;25.00;;;13.18;;
55224;SDS011;41091;49.400;8.684;2022-10-13T06:17:36;23.05;;;11.88;;
55224;SDS011;41091;49.400;8.684;2022-10-13T06:20:03;19.17;;;8.88;;
55224;SDS011;41091;49.400;8.684;2022-10-13T06:22:30;11.27;;;7.47;;
55224;SDS011;41091;49.400;8.684;2022-10-13T06:24:59;17.90;;;8.45;;
55224;SDS011;41091;49.400;8.684;2022-10-13T06:27:27;13.60;;;8.07;;
55224;SDS011;41091;49.400;8.684;2022-10-13T06:29:52;16.42;;;7.50;;
55224;SDS011;41091;49.400;8.684;2022-10-13T06:32:18;14.50;;;7.90;;
55224;SDS011;41091;49.400;8.684;2022-10-13T06:34:43;13.98;;;7.20;;
55224;SDS011;41091;49.400;8.684;2022-10-13T06:37:09;12.70;;;8.20;;
55224;SDS011;41091;49.400;8.684;2022-10-13T06:39:34;15.02;;;7.88;;
55224;SDS011;41091;49.400;8.684;2022-10-13T06:41:59;12.07;;;7.50;;
55224;SDS011;41091;49.400;8.684;2022-10-13T06:44:25;14.98;;;8.38;;
55224;SDS011;41091;49.400;8.684;2022-10-13T06:46:50;12.45;;;7.43;;
55224;SDS011;41091;49.400;8.684;2022-10-13T06:49:15;17.08;;;7.30;;
55224;SDS011;41091;49.400;8.684;2022-10-13T06:51:41;11.90;;;7.20;;
55224;SDS011;41091;49.400;8.684;2022-10-13T06:54:06;14.48;;;8.50;;
55224;SDS011;41091;49.400;8.684;2022-10-13T06:56:32;17.52;;;8.48;;
55224;SDS011;41091;49.400;8.684;2022-10-13T06:58:57;16.90;;;8.15;;
55224;SDS011;41091;49.400;8.684;2022-10-13T07:01:27;19.00;;;8.93;;
55224;SDS011;41091;49.400;8.684;2022-10-13T07:03:52;18.25;;;8.23;;
55224;SDS011;41091;49.400;8.684;2022-10-13T07:06:18;16.23;;;8.20;;
55224;SDS011;41091;49.400;8.684;2022-10-13T07:08:43;14.65;;;8.80;;
55224;SDS011;41091;49.400;8.684;2022-10-13T07:11:10;13.68;;;8.77;;
55224;SDS011;41091;49.400;8.684;2022-10-13T07:13:37;14.95;;;8.82;;
55224;SDS011;41091;49.400;8.684;2022-10-13T07:16:03;12.98;;;8.68;;
55224;SDS011;41091;49.400;8.684;2022-10-13T07:18:31;14.15;;;8.15;;
55224;SDS011;41091;49.400;8.684;2022-10-13T07:20:57;21.25;;;8.15;;
55224;SDS011;41091;49.400;8.684;2022-10-13T07:23:23;17.58;;;8.52;;
55224;SDS011;41091;49.400;8.684;2022-10-13T07:25:54;20.48;;;8.77;;
55224;SDS011;41091;49.400;8.684;2022-10-13T07:28:23;15.07;;;9.57;;
55224;SDS011;41091;49.400;8.684;2022-10-13T07:30:49;11.52;;;7.82;;
55224;SDS011;41091;49.400;8.684;2022-10-13T07:33:14;20.05;;;9.98;;
55224;SDS011;41091;49.400;8.684;2022-10-13T07:35:42;14.18;;;8.32;;
55224;SDS011;41091;49.400;8.684;2022-10-13T07:38:07;17.42;;;8.95;;
55224;SDS011;41091;49.400;8.684;2022-10-13T07:40:33;15.73;;;9.20;;
55224;SDS011;41091;49.400;8.684;2022-10-13T07:43:01;16.08;;;9.48;;
55224;SDS011;41091;49.400;8.684;2022-10-13T07:45:29;16.10;;;9.05;;
55224;SDS011;41091;49.400;8.684;2022-10-13T07:47:55;15.10;;;8.98;;
55224;SDS011;41091;49.400;8.684;2022-10-13T07:50:22;21.88;;;10.00;;
55224;SDS011;41091;49.400;8.684;2022-10-13T07:52:50;21.23;;;9.23;;
55224;SDS011;41091;49.400;8.684;2022-10-13T07:55:20;16.60;;;8.85;;
55224;SDS011;41091;49.400;8.684;2022-10-13T07:57:46;11.55;;;7.75;;
55224;SDS011;41091;49.400;8.684;2022-10-13T08:00:14;18.70;;;9.80;;
55224;SDS011;41091;49.400;8.684;2022-10-13T08:02:40;16.02;;;8.27;;
55224;SDS011;41091;49.400;8.684;2022-10-13T08:05:05;15.73;;;7.70;;
55224;SDS011;41091;49.400;8.684;2022-10-13T08:07:31;14.55;;;8.80;;
55224;SDS011;41091;49.400;8.684;2022-10-13T08:10:00;13.65;;;8.50;;
55224;SDS011;41091;49.400;8.684;2022-10-13T08:12:26;16.45;;;8.10;;
55224;SDS011;41091;49.400;8.684;2022-10-13T08:14:53;11.65;;;7.82;;
55224;SDS011;41091;49.400;8.684;2022-10-13T08:17:19;18.85;;;8.50;;
55224;SDS011;41091;49.400;8.684;2022-10-13T08:19:44;12.38;;;8.27;;
55224;SDS011;41091;49.400;8.684;2022-10-13T08:22:11;12.68;;;8.15;;
55224;SDS011;41091;49.400;8.684;2022-10-13T08:24:40;17.48;;;8.63;;
55224;SDS011;41091;49.400;8.684;2022-10-13T08:27:09;18.02;;;8.48;;
55224;SDS011;41091;49.400;8.684;2022-10-13T08:29:35;14.18;;;8.65;;
55224;SDS011;41091;49.400;8.684;2022-10-13T08:32:00;20.30;;;8.02;;
55224;SDS011;41091;49.400;8.684;2022-10-13T08:34:26;13.00;;;7.85;;
55224;SDS011;41091;49.400;8.684;2022-10-13T08:36:51;13.57;;;6.95;;
55224;SDS011;41091;49.400;8.684;2022-10-13T08:39:20;18.95;;;7.32;;
55224;SDS011;41091;49.400;8.684;2022-10-13T08:41:46;16.13;;;8.07;;
55224;SDS011;41091;49.400;8.684;2022-10-13T08:47:08;11.27;;;7.18;;
55224;SDS011;41091;49.400;8.684;2022-10-13T08:49:40;14.05;;;8.38;;
55224;SDS011;41091;49.400;8.684;2022-10-13T08:52:09;8.00;;;7.05;;
55224;SDS011;41091;49.400;8.684;2022-10-13T08:54:40;12.27;;;7.90;;
55224;SDS011;41091;49.400;8.684;2022-10-13T08:57:09;10.98;;;7.78;;
55224;SDS011;41091;49.400;8.684;2022-10-13T08:59:34;19.45;;;8.30;;
55224;SDS011;41091;49.400;8.684;2022-10-13T09:02:00;14.35;;;8.73;;
55224;SDS011;41091;49.400;8.684;2022-10-13T09:04:30;14.98;;;8.73;;
55224;SDS011;41091;49.400;8.684;2022-10-13T09:07:01;13.68;;;8.63;;
55224;SDS011;41091;49.400;8.684;2022-10-13T09:09:29;14.40;;;9.38;;
55224;SDS011;41091;49.400;8.684;2022-10-13T09:11:54;18.80;;;8.75;;
55224;SDS011;41091;49.400;8.684;2022-10-13T09:16:53;22.52;;;8.48;;
55224;SDS011;41091;49.400;8.684;2022-10-13T09:19:27;18.45;;;10.15;;
55224;SDS011;41091;49.400;8.684;2022-10-13T09:21:55;13.68;;;9.15;;
55224;SDS011;41091;49.400;8.684;2022-10-13T09:24:25;15.00;;;9.35;;
55224;SDS011;41091;49.400;8.684;2022-10-13T09:27:05;18.10;;;9.25;;
55224;SDS011;41091;49.400;8.684;2022-10-13T09:29:34;19.55;;;9.98;;
55224;SDS011;41091;49.400;8.684;2022-10-13T09:32:18;12.85;;;8.48;;
55224;SDS011;41091;49.400;8.684;2022-10-13T09:34:47;20.08;;;9.82;;
55224;SDS011;41091;49.400;8.684;2022-10-13T09:37:20;23.02;;;10.32;;
55224;SDS011;41091;49.400;8.684;2022-10-13T09:40:20;18.05;;;9.25;;
55224;SDS011;41091;49.400;8.684;2022-10-13T09:42:51;21.63;;;9.68;;
55224;SDS011;41091;49.400;8.684;2022-10-13T09:45:20;18.50;;;9.68;;
55224;SDS011;41091;49.400;8.684;2022-10-13T09:47:49;21.83;;;8.95;;
55224;SDS011;41091;49.400;8.684;2022-10-13T09:50:22;11.77;;;8.77;;
55224;SDS011;41091;49.400;8.684;2022-10-13T09:52:50;9.55;;;8.60;;
55224;SDS011;41091;49.400;8.684;2022-10-13T09:57:53;20.30;;;9.65;;
55224;SDS011;41091;49.400;8.684;2022-10-13T10:00:24;15.90;;;9.93;;
55224;SDS011;41091;49.400;8.684;2022-10-13T10:02:57;16.80;;;9.38;;
55224;SDS011;41091;49.400;8.684;2022-10-13T10:08:10;15.30;;;9.30;;
55224;SDS011;41091;49.400;8.684;2022-10-13T10:10:39;19.30;;;9.80;;
55224;SDS011;41091;49.400;8.684;2022-10-13T10:13:09;22.63;;;10.05;;
55224;SDS011;41091;49.400;8.684;2022-10-13T10:18:12;26.27;;;10.20;;
55224;SDS011;41091;49.400;8.684;2022-10-13T10:30:02;17.88;;;9.55;;
55224;SDS011;41091;49.400;8.684;2022-10-13T10:32:14;27.83;;;9.73;;
55224;SDS011;41091;49.400;8.684;2022-10-13T10:35:12;15.18;;;8.82;;
55224;SDS011;41091;49.400;8.684;2022-10-13T10:45:50;19.48;;;10.70;;
55224;SDS011;41091;49.400;8.684;2022-10-13T10:48:19;16.33;;;9.07;;
55224;SDS011;41091;49.400;8.684;2022-10-13T10:50:48;22.33;;;11.02;;
55224;SDS011;41091;49.400;8.684;2022-10-13T10:53:21;17.27;;;9.70;;
55224;SDS011;41091;49.400;8.684;2022-10-13T10:59:05;20.02;;;11.00;;
55224;SDS011;41091;49.400;8.684;2022-10-13T11:06:56;24.08;;;10.93;;
55224;SDS011;41091;49.400;8.684;2022-10-13T11:12:21;27.52;;;12.65;;
55224;SDS011;41091;49.400;8.684;2022-10-13T11:15:08;21.85;;;11.85;;
55224;SDS011;41091;49.400;8.684;2022-10-13T11:17:35;23.75;;;12.77;;
55224;SDS011;41091;49.400;8.684;2022-10-13T11:22:43;18.95;;;12.45;;
55224;SDS011;41091;49.400;8.684;2022-10-13T11:28:57;25.85;;;11.63;;
55224;SDS011;41091;49.400;8.684;2022-10-13T11:45:12;29.58;;;12.93;;
55224;SDS011;41091;49.400;8.684;2022-10-13T11:47:32;21.50;;;13.15;;
55224;SDS011;41091;49.400;8.684;2022-10-13T11:50:25;26.75;;;14.35;;
55224;SDS011;41091;49.400;8.684;2022-10-13T11:53:17;26.42;;;13.25;;
55224;SDS011;41091;49.400;8.684;2022-10-13T11:55:51;24.15;;;12.80;;
55224;SDS011;41091;49.400;8.684;2022-10-13T11:58:24;25.63;;;13.88;;
55224;SDS011;41091;49.400;8.684;2022-10-13T12:03:23;22.08;;;11.77;;
55224;SDS011;41091;49.400;8.684;2022-10-13T12:05:49;18.90;;;11.75;;
55224;SDS011;41091;49.400;8.684;2022-10-13T12:08:16;21.20;;;11.90;;
55224;SDS011;41091;49.400;8.684;2022-10-13T12:10:46;28.88;;;11.35;;
55224;SDS011;41091;49.400;8.684;2022-10-13T12:13:20;28.75;;;12.40;;
55224;SDS011;41091;49.400;8.684;2022-10-13T12:15:47;27.50;;;12.65;;
55224;SDS011;41091;49.400;8.684;2022-10-13T12:21:01;32.53;;;13.35;;
55224;SDS011;41091;49.400;8.684;2022-10-13T12:23:50;23.98;;;12.88;;
55224;SDS011;41091;49.400;8.684;2022-10-13T12:26:19;19.25;;;11.75;;
55224;SDS011;41091;49.400;8.684;2022-10-13T12:31:37;21.75;;;12.63;;
55224;SDS011;41091;49.400;8.684;2022-10-13T12:34:15;23.83;;;12.38;;
55224;SDS011;41091;49.400;8.684;2022-10-13T12:36:44;27.08;;;12.13;;
55224;SDS011;41091;49.400;8.684;2022-10-13T12:39:11;20.83;;;13.82;;
55224;SDS011;41091;49.400;8.684;2022-10-13T12:41:41;19.90;;;11.90;;
55224;SDS011;41091;49.400;8.684;2022-10-13T12:44:12;27.15;;;12.88;;
55224;SDS011;41091;49.400;8.684;2022-10-13T12:49:12;24.05;;;11.75;;
55224;SDS011;41091;49.400;8.684;2022-10-13T12:54:23;21.83;;;12.23;;
55224;SDS011;41091;49.400;8.684;2022-10-13T12:56:51;20.45;;;10.82;;
55224;SDS011;41091;49.400;8.684;2022-10-13T12:59:18;23.35;;;11.52;;
55224;SDS011;41091;49.400;8.684;2022-10-13T13:01:51;18.95;;;11.15;;
55224;SDS011;41091;49.400;8.684;2022-10-13T13:12:25;25.60;;;9.57;;
55224;SDS011;41091;49.400;8.684;2022-10-13T13:14:48;19.17;;;10.50;;
55224;SDS011;41091;49.400;8.684;2022-10-13T13:19:45;12.25;;;8.88;;
55224;SDS011;41091;49.400;8.684;2022-10-13T13:22:11;23.17;;;10.07;;
55224;SDS011;41091;49.400;8.684;2022-10-13T13:24:37;23.88;;;10.75;;
55224;SDS011;41091;49.400;8.684;2022-10-13T13:27:23;17.70;;;11.00;;
55224;SDS011;41091;49.400;8.684;2022-10-13T13:29:53;14.30;;;10.15;;
55224;SDS011;41091;49.400;8.684;2022-10-13T13:32:19;21.80;;;11.15;;
55224;SDS011;41091;49.400;8.684;2022-10-13T13:34:46;22.98;;;9.18;;
55224;SDS011;41091;49.400;8.684;2022-10-13T13:37:13;29.83;;;9.75;;
55224;SDS011;41091;49.400;8.684;2022-10-13T13:39:47;12.68;;;8.55;;
55224;SDS011;41091;49.400;8.684;2022-10-13T13:42:14;18.73;;;8.52;;
55224;SDS011;41091;49.400;8.684;2022-10-13T13:44:39;13.65;;;8.32;;
55224;SDS011;41091;49.400;8.684;2022-10-13T13:47:24;24.45;;;8.68;;
55224;SDS011;41091;49.400;8.684;2022-10-13T13:49:51;17.58;;;8.63;;
55224;SDS011;41091;49.400;8.684;2022-10-13T13:52:22;19.75;;;8.55;;
55224;SDS011;41091;49.400;8.684;2022-10-13T13:54:51;19.02;;;9.50;;
55224;SDS011;41091;49.400;8.684;2022-10-13T13:57:17;21.38;;;10.45;;
55224;SDS011;41091;49.400;8.684;2022-10-13T13:59:42;17.23;;;9.45;;
55224;SDS011;41091;49.400;8.684;2022-10-13T14:02:15;17.90;;;9.30;;
55224;SDS011;41091;49.400;8.684;2022-10-13T14:04:44;17.83;;;8.80;;
55224;SDS011;41091;49.400;8.684;2022-10-13T14:07:13;18.20;;;8.48;;
55224;SDS011;41091;49.400;8.684;2022-10-13T14:09:38;17.92;;;8.68;;
55224;SDS011;41091;49.400;8.684;2022-10-13T14:12:04;15.75;;;8.85;;
55224;SDS011;41091;49.400;8.684;2022-10-13T14:14:29;17.75;;;8.90;;
55224;SDS011;41091;49.400;8.684;2022-10-13T14:16:56;25.63;;;10.30;;
55224;SDS011;41091;49.400;8.684;2022-10-13T14:19:21;21.33;;;10.68;;
55224;SDS011;41091;49.400;8.684;2022-10-13T14:21:47;17.05;;;8.48;;
55224;SDS011;41091;49.400;8.684;2022-10-13T14:24:12;23.52;;;8.77;;
55224;SDS011;41091;49.400;8.684;2022-10-13T14:26:37;17.30;;;10.15;;
55224;SDS011;41091;49.400;8.684;2022-10-13T14:29:03;29.10;;;10.77;;
55224;SDS011;41091;49.400;8.684;2022-10-13T14:31:28;16.67;;;9.00;;
55224;SDS011;41091;49.400;8.684;2022-10-13T14:33:56;15.57;;;9.18;;
55224;SDS011;41091;49.400;8.684;2022-10-13T14:36:21;22.30;;;8.15;;
55224;SDS011;41091;49.400;8.684;2022-10-13T14:38:47;18.95;;;8.98;;
55224;SDS011;41091;49.400;8.684;2022-10-13T14:41:12;21.52;;;8.63;;
55224;SDS011;41091;49.400;8.684;2022-10-13T14:43:40;19.70;;;8.85;;
55224;SDS011;41091;49.400;8.684;2022-10-13T14:46:06;18.92;;;9.48;;
55224;SDS011;41091;49.400;8.684;2022-10-13T14:48:32;16.88;;;9.30;;
55224;SDS011;41091;49.400;8.684;2022-10-13T14:51:02;17.55;;;8.30;;
55224;SDS011;41091;49.400;8.684;2022-10-13T14:53:30;15.63;;;7.50;;
55224;SDS011;41091;49.400;8.684;2022-10-13T14:55:56;19.52;;;10.43;;
55224;SDS011;41091;49.400;8.684;2022-10-13T14:58:21;16.02;;;9.48;;
55224;SDS011;41091;49.400;8.684;2022-10-13T15:00:47;18.42;;;9.32;;
55224;SDS011;41091;49.400;8.684;2022-10-13T15:03:15;18.88;;;9.63;;
55224;SDS011;41091;49.400;8.684;2022-10-13T15:05:41;22.15;;;8.40;;
55224;SDS011;41091;49.400;8.684;2022-10-13T15:08:06;22.25;;;9.48;;
55224;SDS011;41091;49.400;8.684;2022-10-13T15:10:32;16.73;;;8.43;;
55224;SDS011;41091;49.400;8.684;2022-10-13T15:12:57;15.07;;;7.93;;
55224;SDS011;41091;49.400;8.684;2022-10-13T15:15:22;14.95;;;8.00;;
55224;SDS011;41091;49.400;8.684;2022-10-13T15:17:50;18.92;;;7.13;;
55224;SDS011;41091;49.400;8.684;2022-10-13T15:20:16;25.10;;;8.88;;
55224;SDS011;41091;49.400;8.684;2022-10-13T15:22:41;26.05;;;9.23;;
55224;SDS011;41091;49.400;8.684;2022-10-13T15:25:06;13.00;;;8.23;;
55224;SDS011;41091;49.400;8.684;2022-10-13T15:27:34;14.50;;;7.95;;
55224;SDS011;41091;49.400;8.684;2022-10-13T15:30:00;23.45;;;7.00;;
55224;SDS011;41091;49.400;8.684;2022-10-13T15:32:26;26.38;;;8.30;;
55224;SDS011;41091;49.400;8.684;2022-10-13T15:34:53;22.85;;;9.85;;
55224;SDS011;41091;49.400;8.684;2022-10-13T15:37:21;13.07;;;9.02;;
55224;SDS011;41091;49.400;8.684;2022-10-13T15:39:46;17.77;;;9.52;;
55224;SDS011;41091;49.400;8.684;2022-10-13T15:42:14;15.18;;;8.20;;
55224;SDS011;41091;49.400;8.684;2022-10-13T15:44:42;16.95;;;8.68;;
55224;SDS011;41091;49.400;8.684;2022-10-13T15:47:07;14.27;;;8.57;;
55224;SDS011;41091;49.400;8.684;2022-10-13T15:49:34;19.17;;;10.45;;
55224;SDS011;41091;49.400;8.684;2022-10-13T15:52:01;18.60;;;9.07;;
55224;SDS011;41091;49.400;8.684;2022-10-13T15:54:27;26.90;;;9.10;;
55224;SDS011;41091;49.400;8.684;2022-10-13T15:56:52;15.93;;;8.02;;
55224;SDS011;41091;49.400;8.684;2022-10-13T15:59:20;16.33;;;8.52;;
55224;SDS011;41091;49.400;8.684;2022-10-13T16:01:45;22.67;;;8.82;;
55224;SDS011;41091;49.400;8.684;2022-10-13T16:04:15;26.23;;;9.10;;
55224;SDS011;41091;49.400;8.684;2022-10-13T16:06:40;11.23;;;7.75;;
55224;SDS011;41091;49.400;8.684;2022-10-13T16:09:08;19.20;;;8.52;;
55224;SDS011;41091;49.400;8.684;2022-10-13T16:11:33;16.77;;;8.85;;
55224;SDS011;41091;49.400;8.684;2022-10-13T16:13:59;29.83;;;8.98;;
55224;SDS011;41091;49.400;8.684;2022-10-13T16:16:24;20.15;;;8.95;;
55224;SDS011;41091;49.400;8.684;2022-10-13T16:18:51;15.02;;;8.07;;
55224;SDS011;41091;49.400;8.684;2022-10-13T16:21:18;15.00;;;9.05;;
55224;SDS011;41091;49.400;8.684;2022-10-13T16:23:46;22.50;;;8.27;;
55224;SDS011;41091;49.400;8.684;2022-10-13T16:26:11;17.80;;;9.48;;
55224;SDS011;41091;49.400;8.684;2022-10-13T16:28:37;12.63;;;7.93;;
55224;SDS011;41091;49.400;8.684;2022-10-13T16:31:03;17.27;;;9.18;;